createdAt,value
2022-08-16T00:01:34.251Z,5.20
2022-08-16T00:04:10.583Z,5.10
2022-08-16T00:06:40.955Z,5.50
2022-08-16T00:09:14.197Z,4.50
2022-08-16T00:11:45.367Z,5.80
2022-08-16T00:14:21.483Z,5.70
2022-08-16T00:17:05.297Z,7.90
2022-08-16T00:19:41.075Z,5.20
2022-08-16T00:22:12.863Z,5.50
2022-08-16T00:24:46.768Z,5.20
2022-08-16T00:27:17.562Z,7.20
2022-08-16T00:29:46.874Z,5.10
2022-08-16T00:32:18.039Z,4.60
2022-08-16T00:34:53.008Z,5.30
2022-08-16T00:37:57.668Z,6.50
2022-08-16T00:40:34.486Z,6.40
2022-08-16T00:43:16.839Z,7.90
2022-08-16T00:45:57.831Z,7.70
2022-08-16T00:48:44.054Z,6.90
2022-08-16T00:51:17.676Z,6.90
2022-08-16T00:53:49.662Z,8.10
2022-08-16T00:56:57.617Z,6.50
2022-08-16T00:59:17.373Z,6.90
2022-08-16T01:01:47.733Z,5.80
2022-08-16T01:04:30.294Z,6.20
2022-08-16T01:07:03.028Z,6.90
2022-08-16T01:09:37.305Z,6.70
2022-08-16T01:12:10.905Z,5.30
2022-08-16T01:14:59.958Z,7.20
2022-08-16T01:17:36.939Z,5.80
2022-08-16T01:20:23.441Z,4.90
2022-08-16T01:23:28.013Z,6.30
2022-08-16T01:26:34.334Z,7.20
2022-08-16T01:29:10.405Z,6.80
2022-08-16T01:31:42.881Z,4.90
2022-08-16T01:34:25.060Z,5.60
2022-08-16T01:37:07.644Z,7.00
2022-08-16T01:39:38.515Z,4.90
2022-08-16T01:42:13.126Z,6.10
2022-08-16T01:44:43.623Z,4.90
2022-08-16T01:47:13.375Z,5.60
2022-08-16T01:50:42.372Z,4.90
2022-08-16T01:52:37.238Z,6.20
2022-08-16T01:55:09.243Z,5.10
2022-08-16T01:57:40.532Z,5.60
2022-08-16T02:00:29.322Z,4.70
2022-08-16T02:02:59.935Z,5.40
2022-08-16T02:05:30.969Z,4.60
2022-08-16T02:08:01.298Z,5.90
2022-08-16T02:10:30.487Z,6.00
2022-08-16T02:13:08.408Z,6.40
2022-08-16T02:15:42.618Z,5.90
2022-08-16T02:18:18.623Z,5.30
2022-08-16T02:20:53.533Z,6.20
2022-08-16T02:23:23.753Z,5.30
2022-08-16T02:25:54.618Z,5.80
2022-08-16T02:28:27.546Z,6.10
2022-08-16T02:31:00.021Z,4.50
2022-08-16T02:33:43.595Z,5.80
2022-08-16T02:36:47.928Z,4.80
2022-08-16T02:39:06.982Z,5.80
2022-08-16T02:41:39.642Z,4.90
2022-08-16T02:44:13.849Z,5.20
2022-08-16T02:46:50.466Z,4.60
2022-08-16T02:49:21.458Z,4.60
2022-08-16T02:51:51.745Z,5.00
2022-08-16T02:54:21.561Z,5.70
2022-08-16T02:56:53.944Z,4.40
2022-08-16T02:59:24.036Z,6.40
2022-08-16T03:01:53.459Z,4.60
2022-08-16T03:04:39.255Z,4.60
2022-08-16T03:07:15.236Z,4.10
2022-08-16T03:09:44.827Z,7.30
2022-08-16T03:12:16.636Z,4.30
2022-08-16T03:14:48.275Z,6.70
2022-08-16T03:17:17.917Z,5.70
2022-08-16T03:19:59.849Z,4.00
2022-08-16T03:22:30.253Z,5.10
2022-08-16T03:25:01.586Z,4.30
2022-08-16T03:27:33.933Z,3.70
2022-08-16T03:30:16.382Z,4.60
2022-08-16T03:32:51.623Z,5.30
2022-08-16T03:35:32.414Z,4.60
2022-08-16T03:38:33.052Z,4.00
2022-08-16T03:40:59.426Z,4.00
2022-08-16T03:43:51.777Z,4.20
2022-08-16T03:46:48.240Z,4.50
2022-08-16T03:54:13.174Z,5.00
2022-08-16T03:56:57.734Z,4.00
2022-08-16T03:59:29.713Z,5.20
2022-08-16T04:02:01.728Z,7.40
2022-08-16T04:04:33.007Z,4.30
2022-08-16T04:07:07.092Z,4.50
2022-08-16T04:09:38.121Z,4.10
2022-08-16T04:12:52.096Z,4.80
2022-08-16T04:15:02.492Z,3.60
2022-08-16T04:17:31.964Z,3.90
2022-08-16T04:20:01.604Z,3.90
2022-08-16T04:22:31.503Z,4.60
2022-08-16T04:25:01.930Z,5.70
2022-08-16T04:27:31.792Z,3.70
2022-08-16T04:30:03.811Z,5.40
2022-08-16T04:32:33.106Z,3.50
2022-08-16T04:35:12.333Z,5.50
2022-08-16T04:37:46.407Z,4.90
2022-08-16T04:40:21.539Z,5.10
2022-08-16T04:42:53.236Z,5.90
2022-08-16T04:45:35.711Z,5.70
2022-08-16T04:48:07.075Z,5.10
2022-08-16T04:50:37.908Z,4.40
2022-08-16T04:53:13.293Z,6.20
2022-08-16T04:55:45.535Z,6.80
2022-08-16T04:58:43.751Z,4.40
2022-08-16T05:01:07.849Z,4.30
2022-08-16T05:03:41.731Z,5.10
2022-08-16T05:06:12.906Z,5.70
2022-08-16T05:08:47.324Z,4.90
2022-08-16T05:11:19.053Z,5.30
2022-08-16T05:13:50.848Z,6.40
2022-08-16T05:16:30.435Z,6.60
2022-08-16T05:19:02.936Z,5.10
2022-08-16T05:21:38.127Z,6.10
2022-08-16T05:24:09.425Z,6.10
2022-08-16T05:26:42.967Z,4.80
2022-08-16T05:29:14.667Z,5.30
2022-08-16T05:31:48.234Z,5.40
2022-08-16T05:34:22.822Z,4.90
2022-08-16T05:36:53.695Z,5.40
2022-08-16T05:39:23.003Z,5.90
2022-08-16T05:41:55.026Z,6.10
2022-08-16T05:44:25.344Z,4.90
2022-08-16T05:46:57.603Z,5.40
2022-08-16T05:49:38.674Z,5.20
2022-08-16T05:52:13.713Z,6.20
2022-08-16T05:54:58.443Z,6.90
2022-08-16T05:57:34.382Z,6.60
2022-08-16T06:00:12.379Z,5.50
2022-08-16T06:02:53.417Z,7.30
2022-08-16T06:05:22.629Z,6.20
2022-08-16T06:07:58.413Z,5.60
2022-08-16T06:10:34.523Z,5.60
2022-08-16T06:13:04.170Z,5.80
2022-08-16T06:15:33.386Z,5.20
2022-08-16T06:18:04.585Z,6.10
2022-08-16T06:20:35.243Z,5.70
2022-08-16T06:23:11.785Z,7.40
2022-08-16T06:25:52.990Z,5.60
2022-08-16T06:28:34.990Z,5.80
2022-08-16T06:31:12.229Z,6.40
2022-08-16T06:33:44.845Z,5.50
2022-08-16T06:36:17.069Z,6.90
2022-08-16T06:38:52.314Z,6.20
2022-08-16T06:41:27.747Z,6.80
2022-08-16T06:43:57.325Z,7.10
2022-08-16T06:46:34.875Z,6.10
2022-08-16T06:49:10.860Z,7.30
2022-08-16T06:51:46.077Z,5.20
2022-08-16T06:54:18.936Z,6.60
2022-08-16T06:56:54.022Z,9.70
2022-08-16T06:59:25.554Z,6.20
2022-08-16T07:01:55.675Z,5.80
2022-08-16T07:04:32.459Z,5.90
2022-08-16T07:07:09.901Z,5.40
2022-08-16T07:09:40.108Z,5.90
2022-08-16T07:12:11.148Z,6.30
2022-08-16T07:14:45.812Z,6.50
2022-08-16T07:17:16.188Z,6.00
2022-08-16T07:20:30.140Z,7.00
2022-08-16T07:22:37.246Z,5.60
2022-08-16T07:25:12.862Z,6.80
2022-08-16T07:27:43.009Z,8.30
2022-08-16T07:30:46.101Z,9.20
2022-08-16T07:33:07.294Z,6.70
2022-08-16T07:35:37.332Z,9.60
2022-08-16T07:38:19.595Z,5.40
2022-08-16T07:40:59.803Z,6.60
2022-08-16T07:43:30.876Z,6.80
2022-08-16T07:46:01.599Z,6.00
2022-08-16T07:48:31.784Z,6.70
2022-08-16T07:51:05.272Z,5.90
2022-08-16T07:53:43.493Z,5.40
2022-08-16T07:56:14.406Z,10.40
2022-08-16T07:58:43.800Z,5.60
2022-08-16T08:01:14.971Z,5.60
2022-08-16T08:03:48.912Z,4.90
2022-08-16T08:06:21.146Z,5.70
2022-08-16T08:08:57.568Z,6.20
2022-08-16T08:11:30.868Z,4.30
2022-08-16T08:14:03.788Z,4.60
2022-08-16T08:16:36.056Z,5.30
2022-08-16T08:19:05.825Z,5.10
2022-08-16T08:22:00.150Z,5.30
2022-08-16T08:24:33.749Z,4.20
2022-08-16T08:27:08.884Z,4.20
2022-08-16T08:29:40.552Z,5.00
2022-08-16T08:33:00.572Z,6.00
2022-08-16T08:35:03.896Z,5.90
2022-08-16T08:37:55.434Z,5.70
2022-08-16T08:40:28.703Z,5.00
2022-08-16T08:43:00.480Z,4.80
2022-08-16T08:45:48.589Z,4.70
2022-08-16T08:48:32.933Z,6.80
2022-08-16T08:51:08.807Z,7.70
2022-08-16T08:53:40.502Z,5.20
2022-08-16T08:56:23.626Z,12.00
2022-08-16T08:58:59.112Z,4.40
2022-08-16T09:01:36.169Z,6.00
2022-08-16T09:04:07.908Z,7.60
2022-08-16T09:06:43.103Z,4.20
2022-08-16T09:09:16.941Z,4.90
2022-08-16T09:11:53.602Z,4.80
2022-08-16T09:14:36.102Z,4.30
2022-08-16T09:17:11.767Z,4.50
2022-08-16T09:19:48.501Z,4.90
2022-08-16T09:22:24.829Z,7.00
2022-08-16T09:25:09.735Z,4.80
2022-08-16T09:27:46.732Z,7.10
2022-08-16T09:30:33.831Z,5.80
2022-08-16T09:33:07.908Z,5.50
2022-08-16T09:35:38.995Z,5.30
2022-08-16T09:38:09.776Z,5.50
2022-08-16T09:40:44.224Z,6.10
2022-08-16T09:43:44.733Z,5.40
2022-08-16T09:46:33.300Z,5.00
2022-08-16T09:48:59.733Z,7.50
2022-08-16T09:51:36.801Z,4.20
2022-08-16T09:54:09.579Z,4.40
2022-08-16T09:56:52.672Z,4.00
2022-08-16T09:59:25.730Z,4.40
2022-08-16T10:02:26.175Z,4.20
2022-08-16T10:04:54.292Z,6.60
2022-08-16T10:07:26.866Z,5.80
2022-08-16T10:10:18.863Z,5.40
2022-08-16T10:13:14.310Z,8.20
2022-08-16T10:15:55.871Z,3.70
2022-08-16T10:19:00.962Z,7.10
2022-08-16T10:21:19.016Z,3.90
2022-08-16T10:23:53.656Z,6.40
2022-08-16T10:27:17.501Z,4.20
2022-08-16T10:29:20.099Z,4.40
2022-08-16T10:31:53.719Z,5.00
2022-08-16T10:34:31.066Z,4.10
2022-08-16T10:37:02.632Z,4.40
2022-08-16T10:39:41.399Z,5.60
2022-08-16T10:42:13.357Z,4.70
2022-08-16T10:44:46.592Z,6.90
2022-08-16T10:47:23.556Z,5.50
2022-08-16T10:49:52.962Z,6.50
2022-08-16T10:52:24.396Z,7.40
2022-08-16T10:55:41.079Z,3.80
2022-08-16T10:57:43.557Z,6.70
2022-08-16T11:00:21.036Z,7.80
2022-08-16T11:02:58.401Z,4.20
2022-08-16T11:08:35.777Z,5.80
2022-08-16T11:11:11.440Z,4.20
2022-08-16T11:13:59.997Z,3.80
2022-08-16T11:19:22.613Z,3.10
2022-08-16T11:24:44.999Z,4.10
2022-08-16T11:27:22.962Z,4.10
2022-08-16T11:29:56.153Z,3.90
2022-08-16T11:32:33.360Z,7.50
2022-08-16T11:35:14.592Z,4.80
2022-08-16T11:38:46.411Z,4.10
2022-08-16T11:40:57.251Z,4.00
2022-08-16T11:43:32.042Z,7.90
2022-08-16T11:46:42.800Z,6.10
2022-08-16T11:48:56.235Z,7.90
2022-08-16T11:51:25.742Z,5.50
2022-08-16T11:53:55.150Z,3.40
2022-08-16T11:56:39.804Z,4.00
2022-08-16T11:59:14.732Z,4.50
2022-08-16T12:01:58.979Z,3.80
2022-08-16T12:04:30.255Z,4.00
2022-08-16T12:06:59.835Z,3.30
2022-08-16T12:09:30.925Z,3.30
2022-08-16T12:12:02.944Z,3.50
2022-08-16T12:14:35.213Z,4.80
2022-08-16T12:17:08.082Z,4.70
2022-08-16T12:19:38.685Z,4.50
2022-08-16T12:22:19.222Z,3.10
2022-08-16T12:24:52.045Z,2.80
2022-08-16T12:27:25.330Z,3.60
2022-08-16T12:29:58.394Z,6.10
2022-08-16T12:32:39.301Z,3.00
2022-08-16T12:35:16.831Z,3.30
2022-08-16T12:37:47.746Z,6.40
2022-08-16T12:40:34.489Z,3.60
2022-08-16T12:43:07.345Z,3.40
2022-08-16T12:45:43.511Z,3.10
2022-08-16T12:48:37.099Z,7.50
2022-08-16T12:51:19.947Z,4.20
2022-08-16T12:53:53.907Z,4.70
2022-08-16T12:56:27.824Z,4.00
2022-08-16T12:58:58.476Z,3.60
2022-08-16T13:01:33.724Z,3.50
2022-08-16T13:04:12.383Z,5.00
2022-08-16T13:06:52.325Z,2.30
2022-08-16T13:09:26.071Z,2.70
2022-08-16T13:12:04.618Z,11.80
2022-08-16T13:14:41.659Z,7.50
2022-08-16T13:17:18.893Z,2.80
2022-08-16T13:20:08.058Z,4.60
2022-08-16T13:25:21.441Z,2.60
2022-08-16T13:28:02.432Z,5.60
2022-08-16T13:30:46.082Z,3.70
2022-08-16T13:33:27.610Z,4.40
2022-08-16T13:36:01.366Z,3.20
2022-08-16T13:38:36.999Z,3.10
2022-08-16T13:41:10.225Z,4.80
2022-08-16T13:43:40.654Z,4.40
2022-08-16T13:46:09.637Z,2.60
2022-08-16T13:48:44.667Z,3.10
2022-08-16T13:51:20.059Z,5.10
2022-08-16T13:53:59.087Z,3.50
2022-08-16T13:56:38.101Z,2.80
2022-08-16T13:59:20.279Z,3.40
2022-08-16T14:01:55.439Z,4.30
2022-08-16T14:04:28.187Z,2.70
2022-08-16T14:06:59.461Z,4.70
2022-08-16T14:09:30.509Z,3.80
2022-08-16T14:12:04.284Z,2.80
2022-08-16T14:14:38.998Z,6.00
2022-08-16T14:17:09.773Z,3.40
2022-08-16T14:19:44.841Z,2.70
2022-08-16T14:22:30.301Z,3.30
2022-08-16T14:25:03.190Z,3.90
2022-08-16T14:27:32.998Z,2.90
2022-08-16T14:30:02.829Z,2.60
2022-08-16T14:32:34.601Z,2.60
2022-08-16T14:35:08.771Z,2.70
2022-08-16T14:37:39.171Z,3.30
2022-08-16T14:40:15.690Z,3.80
2022-08-16T14:42:48.080Z,4.80
2022-08-16T14:45:22.455Z,3.10
2022-08-16T14:47:51.642Z,2.70
2022-08-16T14:50:25.218Z,3.90
2022-08-16T14:52:59.533Z,5.30
2022-08-16T14:55:31.219Z,2.70
2022-08-16T14:58:01.512Z,3.80
2022-08-16T15:00:33.074Z,3.20
2022-08-16T15:03:06.820Z,3.00
2022-08-16T15:05:42.318Z,3.30
2022-08-16T15:08:11.626Z,6.30
2022-08-16T15:10:44.806Z,3.60
2022-08-16T15:13:16.347Z,3.10
2022-08-16T15:15:56.276Z,2.70
2022-08-16T15:18:27.797Z,2.40
2022-08-16T15:21:02.581Z,3.50
2022-08-16T15:23:33.709Z,3.30
2022-08-16T15:26:08.346Z,4.10
2022-08-16T15:28:38.699Z,3.10
2022-08-16T15:31:12.905Z,2.40
2022-08-16T15:33:50.980Z,2.80
2022-08-16T15:36:28.122Z,2.70
2022-08-16T15:39:07.100Z,2.60
2022-08-16T15:41:48.749Z,2.20
2022-08-16T15:44:22.869Z,2.80
2022-08-16T15:46:58.616Z,4.60
2022-08-16T15:49:37.899Z,4.60
2022-08-16T15:52:29.257Z,8.20
2022-08-16T15:55:13.271Z,7.80
2022-08-16T15:57:54.517Z,2.90
2022-08-16T16:00:26.780Z,3.00
2022-08-16T16:03:09.233Z,3.50
2022-08-16T16:05:42.790Z,2.20
2022-08-16T16:08:14.249Z,2.40
2022-08-16T16:10:55.332Z,3.40
2022-08-16T16:13:25.074Z,2.40
2022-08-16T16:15:58.270Z,3.00
2022-08-16T16:18:30.851Z,2.90
2022-08-16T16:21:03.684Z,4.10
2022-08-16T16:23:44.478Z,3.00
2022-08-16T16:26:24.866Z,2.80
2022-08-16T16:29:08.784Z,2.90
2022-08-16T16:31:59.083Z,8.00
2022-08-16T16:34:32.237Z,2.90
2022-08-16T16:37:05.662Z,2.40
2022-08-16T16:39:41.666Z,3.10
2022-08-16T16:42:25.424Z,4.10
2022-08-16T16:45:02.193Z,3.20
2022-08-16T16:47:40.607Z,8.50
2022-08-16T16:50:19.194Z,3.30
2022-08-16T16:52:54.218Z,1.60
2022-08-16T16:55:25.067Z,2.10
2022-08-16T16:58:18.080Z,2.30
2022-08-16T17:01:03.782Z,3.20
2022-08-16T17:03:34.318Z,2.30
2022-08-16T17:06:09.398Z,2.10
2022-08-16T17:08:43.606Z,3.70
2022-08-16T17:11:14.546Z,1.50
2022-08-16T17:13:44.663Z,2.80
2022-08-16T17:16:18.639Z,2.40
2022-08-16T17:19:16.825Z,2.40
2022-08-16T17:21:42.070Z,2.30
2022-08-16T17:24:18.217Z,2.90
2022-08-16T17:26:49.254Z,2.00
2022-08-16T17:29:30.757Z,2.40
2022-08-16T17:32:02.361Z,3.50
2022-08-16T17:34:51.353Z,3.30
2022-08-16T17:37:42.454Z,3.10
2022-08-16T17:40:25.467Z,2.70
2022-08-16T17:43:06.048Z,1.50
2022-08-16T17:45:36.256Z,1.80
2022-08-16T17:48:06.482Z,3.60
2022-08-16T17:50:35.921Z,1.80
2022-08-16T17:53:06.538Z,1.90
2022-08-16T17:55:38.149Z,2.20
2022-08-16T17:58:22.542Z,2.20
2022-08-16T18:00:55.753Z,1.70
2022-08-16T18:04:02.186Z,1.80
2022-08-16T18:06:19.781Z,2.50
2022-08-16T18:08:51.150Z,3.20
2022-08-16T18:11:26.493Z,1.60
2022-08-16T18:13:56.188Z,2.40
2022-08-16T18:16:26.178Z,2.90
2022-08-16T18:18:55.315Z,1.80
2022-08-16T18:21:43.554Z,2.50
2022-08-16T18:24:15.453Z,3.50
2022-08-16T18:26:44.847Z,3.10
2022-08-16T18:29:14.372Z,2.40
2022-08-16T18:31:43.678Z,1.80
2022-08-16T18:34:12.855Z,3.30
2022-08-16T18:36:42.158Z,1.40
2022-08-16T18:39:13.210Z,2.00
2022-08-16T18:41:42.595Z,2.10
2022-08-16T18:44:24.801Z,2.10
2022-08-16T18:46:57.385Z,1.70
2022-08-16T18:49:26.792Z,1.40
2022-08-16T18:52:00.311Z,2.40
2022-08-16T18:54:32.329Z,2.00
2022-08-16T18:57:04.586Z,2.30
2022-08-16T18:59:37.888Z,1.90
2022-08-16T19:02:08.165Z,2.90
2022-08-16T19:04:58.684Z,3.50
2022-08-16T19:07:30.654Z,1.60
2022-08-16T19:10:03.129Z,1.90
2022-08-16T19:12:37.693Z,2.30
2022-08-16T19:15:16.535Z,2.40
2022-08-16T19:17:46.909Z,2.50
2022-08-16T19:20:19.088Z,1.90
2022-08-16T19:23:05.935Z,3.00
2022-08-16T19:25:48.697Z,2.00
2022-08-16T19:28:49.933Z,2.30
2022-08-16T19:31:40.758Z,2.10
2022-08-16T19:34:11.508Z,2.30
2022-08-16T19:36:41.152Z,4.50
2022-08-16T19:39:14.673Z,6.40
2022-08-16T19:41:53.543Z,6.60
2022-08-16T19:44:24.033Z,2.60
2022-08-16T19:46:53.014Z,2.50
2022-08-16T19:49:22.099Z,3.10
2022-08-16T19:51:52.175Z,3.20
2022-08-16T19:54:21.767Z,4.10
2022-08-16T19:56:51.049Z,4.20
2022-08-16T19:59:40.292Z,3.20
2022-08-16T20:02:35.656Z,2.10
2022-08-16T20:05:06.577Z,2.30
2022-08-16T20:07:35.570Z,3.40
2022-08-16T20:10:08.344Z,2.40
2022-08-16T20:12:38.066Z,2.00
2022-08-16T20:15:08.717Z,1.90
2022-08-16T20:17:37.883Z,1.70
2022-08-16T20:20:07.964Z,2.60
2022-08-16T20:22:53.638Z,2.70
2022-08-16T20:25:28.151Z,1.60
2022-08-16T20:27:59.934Z,2.40
2022-08-16T20:30:29.235Z,1.60
2022-08-16T20:32:58.524Z,2.50
2022-08-16T20:35:30.124Z,2.00
2022-08-16T20:38:00.605Z,1.30
2022-08-16T20:40:35.257Z,2.00
2022-08-16T20:43:15.475Z,1.90
2022-08-16T20:45:47.040Z,2.90
2022-08-16T20:48:17.477Z,2.60
2022-08-16T20:50:46.515Z,2.00
2022-08-16T20:53:15.857Z,1.50
2022-08-16T20:55:46.385Z,1.80
2022-08-16T20:58:16.397Z,1.70
2022-08-16T21:00:46.289Z,1.60
2022-08-16T21:03:15.574Z,1.60
2022-08-16T21:05:46.104Z,1.40
2022-08-16T21:08:50.245Z,1.00
2022-08-16T21:11:07.835Z,2.10
2022-08-16T21:13:40.668Z,1.60
2022-08-16T21:16:12.372Z,1.30
2022-08-16T21:18:41.584Z,1.40
2022-08-16T21:21:12.626Z,1.60
2022-08-16T21:23:42.137Z,1.40
2022-08-16T21:26:11.311Z,1.20
2022-08-16T21:28:43.483Z,1.60
2022-08-16T21:31:15.985Z,1.20
2022-08-16T21:33:47.493Z,2.70
2022-08-16T21:39:06.704Z,1.70
2022-08-16T21:41:39.047Z,1.80
2022-08-16T21:44:08.684Z,2.30
2022-08-16T21:46:37.994Z,1.80
2022-08-16T21:49:07.284Z,1.10
2022-08-16T21:51:36.884Z,1.40
2022-08-16T21:54:06.218Z,1.80
2022-08-16T21:56:35.283Z,1.70
2022-08-16T21:59:11.304Z,2.00
2022-08-16T22:01:42.585Z,2.40
2022-08-16T22:04:38.480Z,2.00
2022-08-16T22:07:01.948Z,1.90
2022-08-16T22:09:31.204Z,3.20
2022-08-16T22:12:00.678Z,2.00
2022-08-16T22:14:29.928Z,1.90
2022-08-16T22:16:59.067Z,1.70
2022-08-16T22:19:28.274Z,2.60
2022-08-16T22:21:57.792Z,1.20
2022-08-16T22:24:27.083Z,1.80
2022-08-16T22:26:56.489Z,1.40
2022-08-16T22:29:25.705Z,2.80
2022-08-16T22:31:54.774Z,1.50
2022-08-16T22:34:24.537Z,1.60
2022-08-16T22:36:54.710Z,1.70
2022-08-16T22:39:24.418Z,1.60
2022-08-16T22:41:54.636Z,1.70
2022-08-16T22:44:25.325Z,1.70
2022-08-16T22:46:54.889Z,1.80
2022-08-16T22:49:24.077Z,1.70
2022-08-16T22:51:53.375Z,1.90
2022-08-16T22:54:39.344Z,1.20
2022-08-16T22:57:13.484Z,2.80
2022-08-16T22:59:42.820Z,1.70
2022-08-16T23:02:12.016Z,2.30
2022-08-16T23:04:41.173Z,1.60
2022-08-16T23:07:10.790Z,1.50
2022-08-16T23:09:40.628Z,2.50
2022-08-16T23:12:10.356Z,2.20
2022-08-16T23:14:39.880Z,2.00
2022-08-16T23:17:12.388Z,1.50
2022-08-16T23:19:42.721Z,2.10
2022-08-16T23:22:12.214Z,2.00
2022-08-16T23:24:56.499Z,1.40
2022-08-16T23:27:26.784Z,1.10
2022-08-16T23:29:56.023Z,1.80
2022-08-16T23:32:25.462Z,2.40
2022-08-16T23:34:54.902Z,1.60
2022-08-16T23:37:27.709Z,2.10
2022-08-16T23:39:57.165Z,2.30
2022-08-16T23:42:53.029Z,3.20
2022-08-16T23:45:18.879Z,1.90
2022-08-16T23:47:48.301Z,2.90
2022-08-16T23:50:17.835Z,2.50
2022-08-16T23:53:10.898Z,2.10
2022-08-16T23:55:50.326Z,2.20
2022-08-16T23:58:22.605Z,1.90
